• Join FlightAware (Why Join?)
  • Login
  • US Flag 
09:50AM EDT


 

Airport Tracker/Info


-or-


 

Live Flight TrackerFlight Track Log ✈ JTA613 ✈ 02-Sep-2013 ✈ ROAH / OKA - ROIG / ISG

Flight Track Log - Related Links

Times and Time Zones

All times are in EDT time to prevent confusion due to time zone crossing. See the JTA613 flight status page for this flight to view local times or setup timezone preferences in your user account.

Time Position Orientation Groundspeed Altitude Reporting Facility
EDT Latitude Longitude Course Direction KTS MPH feet Rate Location/Type
01:03AM 26.0449 127.3540 240° Southwest  Level Estimated
01:04AM 25.9958 127.2595 240° Southwest  Level Estimated
01:05AM 25.9467 127.1651 240° Southwest  Level Estimated
01:06AM 25.8975 127.0707 240° Southwest  Level Estimated
01:07AM 25.8483 126.9765 240° Southwest  Level Estimated
01:08AM 25.7989 126.8823 240° Southwest  Level Estimated
01:09AM 25.7496 126.7882 240° Southwest  Level Estimated
01:10AM 25.7001 126.6942 240° Southwest  Level Estimated
01:11AM 25.6506 126.6002 240° Southwest  Level Estimated
01:12AM 25.6011 126.5063 240° Southwest  Level Estimated
01:13AM 25.5514 126.4126 240° Southwest  Level Estimated
01:14AM 25.5018 126.3188 240° Southwest  Level Estimated
01:15AM 25.4520 126.2252 240° Southwest  Level Estimated
01:16AM 25.4022 126.1317 240° Southwest  Level Estimated
01:17AM 25.3524 126.0382 239° Southwest  Level Estimated
01:18AM 25.3025 125.9448 239° Southwest  Level Estimated
01:19AM 25.2525 125.8514 239° Southwest  Level Estimated
01:20AM 25.2025 125.7582 239° Southwest  Level Estimated
01:21AM 25.1524 125.6650 239° Southwest  Level Estimated
01:22AM 25.1022 125.5719 239° Southwest  Level Estimated
01:23AM 25.0520 125.4789 239° Southwest  Level Estimated
01:24AM 25.0018 125.3859 239° Southwest  Level Estimated
01:25AM 24.9514 125.2931 239° Southwest  Level Estimated
01:26AM 24.9011 125.2003 239° Southwest  Level Estimated
01:27AM 24.8506 125.1076 239° Southwest  Level Estimated
01:28AM 24.8001 125.0149 239° Southwest  Level Estimated
01:29AM 24.7496 124.9223 239° Southwest  Level Estimated
01:30AM 24.6990 124.8299 239° Southwest  Level Estimated
01:31AM 24.6483 124.7374 239° Southwest  Level Estimated
01:32AM 24.5976 124.6451 239° Southwest  Level Estimated
01:33AM 24.5468 124.5528 239° Southwest  Level Estimated
01:34AM 24.4960 124.4606 239° Southwest  Level Estimated
01:35AM 24.4451 124.3685 239° Southwest  Level Estimated
01:36AM 24.3941 124.2765 239° Southwest  Level Estimated
01:37AM 24.3445 124.1870 239° Southwest  Level Estimated
01:38AM 24.3445 124.1870 29° Northeast  Level Estimated
01:39AM 24.3445 124.1870 29° Northeast  Level Estimated
01:40AM 24.3445 124.1870 29° Northeast  Level Estimated
01:41AM 24.3445 124.1870 29° Northeast  Level Estimated
01:42AM 24.3445 124.1870 29° Northeast  Level Estimated
01:43AM 24.3445 124.1870 29° Northeast  Level Estimated
01:44AM 24.3445 124.1870 29° Northeast  Level Estimated
01:45AM 24.3445 124.1870 29° Northeast  Level Estimated
01:46AM 24.3445 124.1870 29° Northeast  Level Estimated
01:47AM 24.3445 124.1870 29° Northeast  Level Estimated
01:48AM 24.3445 124.1870 29° Northeast  Level Estimated
01:49AM 24.3445 124.1870 29° Northeast  Level Estimated
01:50AM 24.3445 124.1870 29° Northeast  Level Estimated
01:51AM 24.3445 124.1870 29° Northeast  Level Estimated
01:52AM 24.3445 124.1870 29° Northeast  Level Estimated
01:53AM 24.3445 124.1870 29° Northeast  Level Estimated
01:54AM 24.3445 124.1870 29° Northeast  Level Estimated